Time;durP1;ratioP1;P1;durP2;ratioP2;P2;SDS_P1;SDS_P2;PMS_P1;PMS_P2;Temp;Humidity;BMP_temperature;BMP_pressure;BME280_temperature;BME280_humidity;BME280_pressure;Samples;Min_cycle;Max_cycle;Signal;HPM_P1;HPM_P2
2022/04/22 00:01:26;;;;;;;27.15;8.65;;;;;;;;;;4907795;29;20052;-75
2022/04/22 00:03:57;;;;;;;19.45;8.88;;;;;;;;;;4906656;29;20052;-75
2022/04/22 00:06:28;;;;;;;20.73;8.43;;;;;;;;;;4909349;29;20056;-75
2022/04/22 00:08:59;;;;;;;21.33;8.13;;;;;;;;;;4910231;29;20388;-75
2022/04/22 00:11:32;;;;;;;23.60;8.95;;;;;;;;;;4909088;29;20063;-76
2022/04/22 00:14:08;;;;;;;27.63;8.60;;;;;;;;;;4922364;29;20048;-73
2022/04/22 00:16:38;;;;;;;17.52;7.68;;;;;;;;;;4909519;29;20052;-75
2022/04/22 00:19:08;;;;;;;20.10;7.80;;;;;;;;;;4909670;29;20052;-74
2022/04/22 00:21:41;;;;;;;17.13;7.70;;;;;;;;;;4909454;29;20064;-74
2022/04/22 00:24:12;;;;;;;14.43;7.63;;;;;;;;;;4909018;29;20048;-73
2022/04/22 00:26:41;;;;;;;16.63;7.80;;;;;;;;;;4909578;29;20103;-73
2022/04/22 00:29:11;;;;;;;21.33;7.53;;;;;;;;;;4922902;29;20532;-73
2022/04/22 00:31:41;;;;;;;31.85;7.95;;;;;;;;;;4908330;29;20079;-73
2022/04/22 00:34:11;;;;;;;21.60;8.02;;;;;;;;;;4911969;29;20094;-73
2022/04/22 00:36:41;;;;;;;18.00;7.82;;;;;;;;;;4912858;29;20047;-74
2022/04/22 00:39:11;;;;;;;22.20;8.15;;;;;;;;;;4913219;29;20052;-73
2022/04/22 00:41:41;;;;;;;29.83;8.57;;;;;;;;;;4912552;29;20072;-73
2022/04/22 00:44:11;;;;;;;22.92;8.52;;;;;;;;;;4910980;29;20040;-74
2022/04/22 00:46:41;;;;;;;22.67;7.75;;;;;;;;;;4909792;29;20052;-73
2022/04/22 00:49:13;;;;;;;27.38;8.43;;;;;;;;;;4909426;29;20079;-73
2022/04/22 00:51:44;;;;;;;23.73;8.63;;;;;;;;;;4911731;29;20522;-73
2022/04/22 00:54:14;;;;;;;24.38;8.82;;;;;;;;;;4910943;29;20060;-75
2022/04/22 00:56:44;;;;;;;23.05;8.77;;;;;;;;;;4912516;29;20072;-74
2022/04/22 00:59:15;;;;;;;29.10;7.78;;;;;;;;;;4912550;29;20055;-74
2022/04/22 01:01:45;;;;;;;30.38;9.00;;;;;;;;;;4912631;29;20055;-75
2022/04/22 01:09:52;;;;;;;19.55;8.27;;;;;;;;;;4923423;29;20099;-73
2022/04/22 01:12:22;;;;;;;15.27;8.48;;;;;;;;;;4912360;29;20052;-75
2022/04/22 01:14:52;;;;;;;22.30;8.20;;;;;;;;;;4911702;29;20058;-74
2022/04/22 01:17:23;;;;;;;24.13;8.32;;;;;;;;;;4911764;29;20508;-73
2022/04/22 01:19:54;;;;;;;18.08;8.50;;;;;;;;;;4912618;29;20523;-73
2022/04/22 01:22:24;;;;;;;25.13;9.02;;;;;;;;;;4911803;29;20064;-74
2022/04/22 01:25:03;;;;;;;19.58;8.20;;;;;;;;;;4911537;29;20079;-74
2022/04/22 01:27:34;;;;;;;22.20;8.27;;;;;;;;;;4911622;29;20053;-73
2022/04/22 01:30:08;;;;;;;25.63;8.82;;;;;;;;;;4912764;29;20048;-73
2022/04/22 01:32:39;;;;;;;19.00;8.50;;;;;;;;;;4911346;29;20075;-73
2022/04/22 01:35:09;;;;;;;20.65;8.07;;;;;;;;;;4911449;29;20052;-74
2022/04/22 01:37:39;;;;;;;28.08;8.82;;;;;;;;;;4925487;29;20052;-74
2022/04/22 01:40:09;;;;;;;23.40;9.35;;;;;;;;;;4910619;29;20428;-75
2022/04/22 01:42:40;;;;;;;24.52;9.68;;;;;;;;;;4925575;29;20040;-75
2022/04/22 01:45:14;;;;;;;15.60;9.10;;;;;;;;;;4911086;29;20052;-75
2022/04/22 01:47:44;;;;;;;23.73;11.23;;;;;;;;;;4911676;29;20288;-74
2022/04/22 01:50:15;;;;;;;;;;;;;;;;;;4912162;29;20060;-75
2022/04/22 01:52:45;;;;;;;19.13;7.95;;;;;;;;;;4911792;29;19934;-77
2022/04/22 01:55:15;;;;;;;20.20;8.63;;;;;;;;;;4912058;29;20047;-75
2022/04/22 01:57:46;;;;;;;29.90;8.95;;;;;;;;;;4911494;29;20052;-75
2022/04/22 02:00:16;;;;;;;25.20;10.10;;;;;;;;;;4911607;29;20047;-74
2022/04/22 02:02:46;;;;;;;20.35;9.18;;;;;;;;;;4911306;29;20814;-74
2022/04/22 02:05:16;;;;;;;22.15;9.82;;;;;;;;;;4911669;29;20505;-74
2022/04/22 02:07:46;;;;;;;19.95;9.55;;;;;;;;;;4911280;29;20047;-74
2022/04/22 02:10:15;;;;;;;16.60;10.38;;;;;;;;;;4924861;29;20058;-75
2022/04/22 02:12:46;;;;;;;24.47;11.43;;;;;;;;;;4911373;29;20504;-74
2022/04/22 02:15:18;;;;;;;21.77;11.00;;;;;;;;;;4911278;29;20044;-74
2022/04/22 02:17:49;;;;;;;17.73;11.32;;;;;;;;;;4912046;29;20059;-74
2022/04/22 02:20:18;;;;;;;33.25;12.85;;;;;;;;;;4910977;29;20563;-75
2022/04/22 02:22:48;;;;;;;25.85;11.73;;;;;;;;;;4911367;29;20527;-75
2022/04/22 02:25:18;;;;;;;28.75;11.50;;;;;;;;;;4910966;29;20118;-76
2022/04/22 02:30:37;;;;;;;27.45;15.73;;;;;;;;;;4923238;29;20060;-75
2022/04/22 02:33:07;;;;;;;26.58;15.88;;;;;;;;;;4911102;29;20040;-75
2022/04/22 02:35:37;;;;;;;25.45;13.90;;;;;;;;;;4911069;29;20044;-75
2022/04/22 02:38:07;;;;;;;25.75;12.55;;;;;;;;;;4911392;29;20059;-76
2022/04/22 02:46:13;;;;;;;19.23;11.18;;;;;;;;;;4910665;29;20056;-74
2022/04/22 02:48:43;;;;;;;30.42;11.65;;;;;;;;;;4910478;29;20578;-74
2022/04/22 02:51:13;;;;;;;17.50;11.20;;;;;;;;;;4910586;29;20052;-75
2022/04/22 02:53:44;;;;;;;25.67;10.95;;;;;;;;;;4910747;29;20051;-75
2022/04/22 02:56:15;;;;;;;26.80;11.23;;;;;;;;;;4910416;29;20047;-74
2022/04/22 02:58:45;;;;;;;;;;;;;;;;;;4911498;29;20048;-74
2022/04/22 03:01:15;;;;;;;19.48;10.75;;;;;;;;;;4910542;29;19935;-73
2022/04/22 03:03:46;;;;;;;26.73;10.13;;;;;;;;;;4910731;29;20606;-73
2022/04/22 03:06:17;;;;;;;18.95;10.55;;;;;;;;;;4910278;29;20695;-74
2022/04/22 03:08:47;;;;;;;20.13;11.32;;;;;;;;;;4910387;29;20044;-74
2022/04/22 03:11:21;;;;;;;21.63;10.57;;;;;;;;;;4910898;29;20048;-75
2022/04/22 03:13:52;;;;;;;24.60;10.77;;;;;;;;;;4910776;29;20048;-74
2022/04/22 03:16:26;;;;;;;21.17;10.57;;;;;;;;;;4909591;29;20062;-74
2022/04/22 03:18:57;;;;;;;19.35;10.43;;;;;;;;;;4910166;29;20527;-73
2022/04/22 03:21:27;;;;;;;16.65;9.55;;;;;;;;;;4910262;29;20052;-74
2022/04/22 03:23:57;;;;;;;20.98;10.15;;;;;;;;;;4911120;29;20428;-73
2022/04/22 03:26:27;;;;;;;15.65;9.93;;;;;;;;;;4910200;29;20527;-76
2022/04/22 03:29:00;;;;;;;17.67;10.02;;;;;;;;;;4910214;29;20059;-76
2022/04/22 03:31:30;;;;;;;29.50;10.20;;;;;;;;;;4908874;29;20067;-74
2022/04/22 03:34:00;;;;;;;18.00;10.05;;;;;;;;;;4910286;29;20059;-75
2022/04/22 03:36:31;;;;;;;21.27;10.63;;;;;;;;;;4910469;29;20056;-74
2022/04/22 03:39:01;;;;;;;20.85;10.35;;;;;;;;;;4910103;29;20078;-75
2022/04/22 03:41:32;;;;;;;20.23;10.45;;;;;;;;;;4910159;29;20059;-75
2022/04/22 03:44:02;;;;;;;19.95;11.15;;;;;;;;;;4910124;29;20052;-74
2022/04/22 03:46:32;;;;;;;19.30;11.55;;;;;;;;;;4910498;29;20503;-74
2022/04/22 03:49:04;;;;;;;21.95;11.38;;;;;;;;;;4909467;29;20048;-74
2022/04/22 03:51:35;;;;;;;21.25;12.32;;;;;;;;;;4909285;29;20571;-74
2022/04/22 03:54:05;;;;;;;31.90;12.73;;;;;;;;;;4909807;29;20063;-75
2022/04/22 03:59:24;;;;;;;26.15;12.07;;;;;;;;;;4910242;29;20059;-73
2022/04/22 04:01:54;;;;;;;23.83;12.20;;;;;;;;;;4923403;29;20056;-76
2022/04/22 04:04:24;;;;;;;27.10;12.67;;;;;;;;;;4909684;29;20436;-74
2022/04/22 04:06:54;;;;;;;19.02;12.38;;;;;;;;;;4909418;29;20068;-75
2022/04/22 04:17:49;;;;;;;22.05;11.95;;;;;;;;;;4913450;29;20071;-73
2022/04/22 04:23:14;;;;;;;22.77;11.95;;;;;;;;;;4912758;29;20404;-76
2022/04/22 04:25:47;;;;;;;20.48;11.80;;;;;;;;;;4912827;29;20048;-75
2022/04/22 04:28:18;;;;;;;19.00;12.13;;;;;;;;;;4912926;29;20424;-74
2022/04/22 04:30:48;;;;;;;17.77;11.77;;;;;;;;;;4912825;29;20044;-75
2022/04/22 04:33:17;;;;;;;19.90;11.85;;;;;;;;;;4914002;29;20534;-75
2022/04/22 04:35:47;;;;;;;16.73;11.45;;;;;;;;;;4911396;29;20063;-74
2022/04/22 04:38:18;;;;;;;18.85;12.57;;;;;;;;;;4912995;29;20048;-75
2022/04/22 04:40:48;;;;;;;20.05;12.48;;;;;;;;;;4913004;29;20055;-74
2022/04/22 04:43:19;;;;;;;20.98;11.73;;;;;;;;;;4911815;29;20060;-76
2022/04/22 04:45:52;;;;;;;29.25;12.50;;;;;;;;;;4912834;29;20131;-74
2022/04/22 04:48:22;;;;;;;30.80;12.30;;;;;;;;;;4912853;29;20059;-74
2022/04/22 04:50:55;;;;;;;17.55;12.00;;;;;;;;;;4912396;29;20056;-75
2022/04/22 04:53:26;;;;;;;19.08;11.85;;;;;;;;;;4912934;29;20052;-75
2022/04/22 04:55:56;;;;;;;;;;;;;;;;;;4913033;29;20052;-75
2022/04/22 04:58:26;;;;;;;23.60;11.13;;;;;;;;;;4913824;29;19923;-75
2022/04/22 05:00:56;;;;;;;14.68;9.80;;;;;;;;;;4912816;29;20052;-75
2022/04/22 05:03:26;;;;;;;18.75;10.57;;;;;;;;;;4912763;29;20048;-75
2022/04/22 05:05:56;;;;;;;24.67;11.77;;;;;;;;;;4912519;29;20067;-74
2022/04/22 05:08:26;;;;;;;24.55;12.15;;;;;;;;;;4912635;29;20455;-75
2022/04/22 05:10:57;;;;;;;17.90;11.10;;;;;;;;;;4912694;29;20530;-74
2022/04/22 05:13:26;;;;;;;15.10;10.20;;;;;;;;;;4912264;29;20056;-76
2022/04/22 05:15:57;;;;;;;27.92;10.23;;;;;;;;;;4912102;29;20869;-76
2022/04/22 05:18:27;;;;;;;17.03;10.70;;;;;;;;;;4912070;29;20052;-75
2022/04/22 05:20:57;;;;;;;17.27;10.75;;;;;;;;;;4911210;29;20509;-74
2022/04/22 05:23:27;;;;;;;18.70;11.85;;;;;;;;;;4912297;29;20056;-74
2022/04/22 05:26:01;;;;;;;24.98;11.77;;;;;;;;;;4911826;29;20048;-76
2022/04/22 05:28:31;;;;;;;19.77;11.10;;;;;;;;;;4912259;29;20645;-75
2022/04/22 05:33:51;;;;;;;19.70;11.27;;;;;;;;;;4912212;29;20043;-74
2022/04/22 05:36:21;;;;;;;19.70;11.18;;;;;;;;;;4912055;29;20060;-74
2022/04/22 05:38:54;;;;;;;16.88;10.80;;;;;;;;;;4910912;29;20529;-75
2022/04/22 05:41:24;;;;;;;22.00;10.90;;;;;;;;;;4910888;29;20553;-74
2022/04/22 05:43:54;;;;;;;17.17;10.85;;;;;;;;;;4911563;29;20047;-73
2022/04/22 05:46:23;;;;;;;20.45;10.98;;;;;;;;;;4911686;29;20051;-75
2022/04/22 05:48:53;;;;;;;26.55;11.45;;;;;;;;;;4911910;29;20063;-75
2022/04/22 05:51:23;;;;;;;20.27;10.45;;;;;;;;;;4912092;29;20048;-74
2022/04/22 05:53:53;;;;;;;23.08;11.93;;;;;;;;;;4912172;29;20052;-73
2022/04/22 05:56:23;;;;;;;21.15;11.23;;;;;;;;;;4910880;29;20074;-74
2022/04/22 05:58:54;;;;;;;16.45;10.85;;;;;;;;;;4911614;29;20054;-75
2022/04/22 06:01:24;;;;;;;21.45;11.10;;;;;;;;;;4911606;29;20048;-74
2022/04/22 06:03:54;;;;;;;18.08;10.57;;;;;;;;;;4911695;29;20079;-75
2022/04/22 06:06:24;;;;;;;18.77;11.38;;;;;;;;;;4910440;29;20520;-74
2022/04/22 06:11:42;;;;;;;14.23;10.35;;;;;;;;;;4911137;29;20512;-73
2022/04/22 06:14:12;;;;;;;18.67;11.65;;;;;;;;;;4910920;29;20052;-74
2022/04/22 06:16:42;;;;;;;25.00;12.20;;;;;;;;;;4910703;29;20056;-74
2022/04/22 06:19:12;;;;;;;22.63;11.38;;;;;;;;;;4910754;29;20058;-75
2022/04/22 06:21:43;;;;;;;16.65;11.38;;;;;;;;;;4909895;29;20075;-75
2022/04/22 06:24:13;;;;;;;16.08;11.27;;;;;;;;;;4910891;29;20044;-74
2022/04/22 06:26:43;;;;;;;17.20;10.65;;;;;;;;;;4910544;29;20056;-73
2022/04/22 06:29:13;;;;;;;20.40;11.23;;;;;;;;;;4910966;29;20056;-74
2022/04/22 06:31:43;;;;;;;25.38;12.10;;;;;;;;;;4910062;29;20044;-74
2022/04/22 06:34:13;;;;;;;24.40;11.73;;;;;;;;;;4910779;29;20052;-72
2022/04/22 06:36:44;;;;;;;18.10;11.30;;;;;;;;;;4910804;29;20052;-74
2022/04/22 06:39:14;;;;;;;25.23;11.38;;;;;;;;;;4910686;29;20052;-74
2022/04/22 06:47:22;;;;;;;19.90;10.88;;;;;;;;;;4910605;29;20063;-73
2022/04/22 06:49:52;;;;;;;17.83;10.43;;;;;;;;;;4908779;29;20820;-74
2022/04/22 06:52:21;;;;;;;15.27;10.85;;;;;;;;;;4910755;29;20052;-74
2022/04/22 06:54:52;;;;;;;18.40;11.18;;;;;;;;;;4910214;29;20058;-73
2022/04/22 06:57:23;;;;;;;17.10;11.18;;;;;;;;;;4909075;29;20508;-74
2022/04/22 06:59:53;;;;;;;14.02;10.90;;;;;;;;;;4909441;29;20420;-74
2022/04/22 07:02:24;;;;;;;21.92;10.90;;;;;;;;;;4910315;29;20056;-74
2022/04/22 07:04:55;;;;;;;16.40;9.80;;;;;;;;;;4923451;29;20067;-74
2022/04/22 07:07:25;;;;;;;17.60;9.60;;;;;;;;;;4910274;29;20409;-73
2022/04/22 07:09:55;;;;;;;18.80;8.80;;;;;;;;;;4910666;29;20052;-72
2022/04/22 07:12:27;;;;;;;16.73;9.68;;;;;;;;;;4910270;29;20052;-73
2022/04/22 07:15:06;;;;;;;21.55;10.07;;;;;;;;;;4911076;29;20063;-73
2022/04/22 07:17:38;;;;;;;17.83;11.75;;;;;;;;;;4910012;29;20040;-74
2022/04/22 07:20:10;;;;;;;20.02;12.35;;;;;;;;;;4910103;29;20546;-74
2022/04/22 07:22:45;;;;;;;18.50;11.05;;;;;;;;;;4909738;29;20048;-73
2022/04/22 07:25:16;;;;;;;13.55;9.55;;;;;;;;;;4910184;29;20059;-73
2022/04/22 07:27:47;;;;;;;;;;;;;;;;;;4909814;29;20044;-73
2022/04/22 07:30:18;;;;;;;17.35;10.63;;;;;;;;;;4924342;29;20044;-73
2022/04/22 07:32:49;;;;;;;13.77;11.25;;;;;;;;;;4910056;29;20543;-72
2022/04/22 07:35:21;;;;;;;15.13;10.38;;;;;;;;;;4909503;29;20052;-75
2022/04/22 07:37:53;;;;;;;14.63;11.95;;;;;;;;;;4909809;29;20040;-74
2022/04/22 07:40:23;;;;;;;20.23;11.07;;;;;;;;;;4909753;29;20401;-74
2022/04/22 07:48:44;;;;;;;17.08;11.95;;;;;;;;;;4913499;29;20052;-75
2022/04/22 07:51:16;;;;;;;17.40;12.82;;;;;;;;;;4913764;29;20483;-74
2022/04/22 07:53:47;;;;;;;19.65;12.23;;;;;;;;;;4913573;29;20542;-73
2022/04/22 07:56:17;;;;;;;25.08;11.68;;;;;;;;;;4913934;29;20044;-74
2022/04/22 07:58:47;;;;;;;17.10;11.48;;;;;;;;;;4913668;29;20074;-75
2022/04/22 08:01:17;;;;;;;18.65;11.65;;;;;;;;;;4912888;29;20063;-75
2022/04/22 08:03:46;;;;;;;18.23;12.20;;;;;;;;;;4914319;29;20056;-73
2022/04/22 08:06:17;;;;;;;19.10;11.65;;;;;;;;;;4914015;29;20052;-74
2022/04/22 08:08:48;;;;;;;21.13;11.98;;;;;;;;;;4913530;29;20052;-74
2022/04/22 08:11:20;;;;;;;23.10;10.85;;;;;;;;;;4912816;29;20048;-73
2022/04/22 08:13:50;;;;;;;16.40;11.18;;;;;;;;;;4912943;29;20052;-74
2022/04/22 08:16:20;;;;;;;17.52;11.60;;;;;;;;;;4913373;29;20044;-74
2022/04/22 08:18:50;;;;;;;20.23;11.18;;;;;;;;;;4913968;29;20059;-74
2022/04/22 08:21:19;;;;;;;12.90;10.05;;;;;;;;;;4913354;29;20435;-74
2022/04/22 08:23:49;;;;;;;15.80;10.40;;;;;;;;;;4912796;29;20048;-73
2022/04/22 08:26:19;;;;;;;13.48;8.65;;;;;;;;;;4912849;29;20044;-75
2022/04/22 08:28:49;;;;;;;17.45;10.25;;;;;;;;;;4913437;29;20435;-74
2022/04/22 08:31:19;;;;;;;21.00;10.82;;;;;;;;;;4913072;29;20052;-73
2022/04/22 08:33:51;;;;;;;13.85;10.80;;;;;;;;;;4912883;29;20056;-72
2022/04/22 08:36:29;;;;;;;13.63;10.85;;;;;;;;;;4912782;29;20051;-74
2022/04/22 08:38:59;;;;;;;18.80;10.98;;;;;;;;;;4912600;29;20433;-75
2022/04/22 08:41:32;;;;;;;15.40;10.77;;;;;;;;;;4912299;29;20063;-73
2022/04/22 08:44:03;;;;;;;16.58;11.07;;;;;;;;;;4912370;29;20397;-74
2022/04/22 08:52:15;;;;;;;23.20;11.60;;;;;;;;;;4913409;29;20063;-72
2022/04/22 08:54:46;;;;;;;21.35;10.85;;;;;;;;;;4912395;29;20051;-74
2022/04/22 08:57:19;;;;;;;15.00;10.90;;;;;;;;;;4912767;29;20048;-73
2022/04/22 08:59:49;;;;;;;15.75;11.05;;;;;;;;;;4912768;29;20052;-75
2022/04/22 09:02:20;;;;;;;20.48;11.38;;;;;;;;;;4912596;29;20055;-74
2022/04/22 09:04:51;;;;;;;14.25;11.18;;;;;;;;;;4912209;29;20508;-74
2022/04/22 09:07:24;;;;;;;17.65;11.30;;;;;;;;;;4912666;29;20056;-73
2022/04/22 09:09:55;;;;;;;24.70;11.93;;;;;;;;;;4912478;29;20048;-73
2022/04/22 09:12:27;;;;;;;16.80;12.10;;;;;;;;;;4912821;29;20048;-75
2022/04/22 09:14:57;;;;;;;24.33;11.32;;;;;;;;;;4912328;29;20051;-74
2022/04/22 09:17:28;;;;;;;12.90;10.75;;;;;;;;;;4912307;29;20127;-74
2022/04/22 09:19:59;;;;;;;14.07;9.82;;;;;;;;;;4912247;29;20044;-74
2022/04/22 09:22:36;;;;;;;15.20;10.27;;;;;;;;;;4911859;29;20122;-73
2022/04/22 09:25:07;;;;;;;16.02;9.85;;;;;;;;;;4912016;29;20051;-75
2022/04/22 09:27:42;;;;;;;16.27;10.05;;;;;;;;;;4912087;29;20063;-74
2022/04/22 09:30:13;;;;;;;11.90;9.27;;;;;;;;;;4912346;29;20044;-73
2022/04/22 09:32:44;;;;;;;;;;;;;;;;;;4911938;29;20066;-74
2022/04/22 09:35:20;;;;;;;15.82;10.40;;;;;;;;;;4912449;29;20498;-73
2022/04/22 09:43:42;;;;;;;19.92;11.05;;;;;;;;;;4911131;29;20052;-77
2022/04/22 09:46:30;;;;;;;20.50;11.52;;;;;;;;;;4912604;29;20343;-73
2022/04/22 09:49:01;;;;;;;15.85;9.60;;;;;;;;;;4910953;29;20059;-74
2022/04/22 09:51:31;;;;;;;11.68;8.20;;;;;;;;;;4910716;29;20052;-73
2022/04/22 09:54:06;;;;;;;21.92;9.98;;;;;;;;;;4911403;29;20052;-75
2022/04/22 09:56:38;;;;;;;15.00;9.52;;;;;;;;;;4911670;29;20048;-74
2022/04/22 09:59:24;;;;;;;;;;;;;;;;;;4911677;29;20048;-74
2022/04/22 10:01:55;;;;;;;13.07;8.57;;;;;;;;;;4911336;29;19934;-73
2022/04/22 10:04:33;;;;;;;21.63;9.48;;;;;;;;;;4910769;29;20063;-73
2022/04/22 10:07:03;;;;;;;12.80;8.90;;;;;;;;;;4910287;29;20052;-72
2022/04/22 10:09:36;;;;;;;23.08;10.80;;;;;;;;;;4925872;29;20052;-73
2022/04/22 10:12:12;;;;;;;18.10;9.98;;;;;;;;;;4911640;29;20063;-78
2022/04/22 10:14:44;;;;;;;18.60;10.77;;;;;;;;;;4910958;29;20063;-75
2022/04/22 10:17:15;;;;;;;23.67;11.07;;;;;;;;;;4910936;29;20064;-73
2022/04/22 10:19:46;;;;;;;20.70;11.05;;;;;;;;;;4910703;29;20047;-73
2022/04/22 10:22:18;;;;;;;32.13;10.90;;;;;;;;;;4910940;29;20075;-73
2022/04/22 10:24:51;;;;;;;22.42;9.98;;;;;;;;;;4911832;29;20295;-72
2022/04/22 10:27:21;;;;;;;34.45;11.02;;;;;;;;;;4910589;29;20056;-73
2022/04/22 10:29:53;;;;;;;28.58;11.85;;;;;;;;;;4910990;29;20058;-73
2022/04/22 10:32:26;;;;;;;26.35;10.77;;;;;;;;;;4909973;29;20044;-75
2022/04/22 10:35:00;;;;;;;32.90;10.82;;;;;;;;;;4910591;29;20048;-73
2022/04/22 10:37:33;;;;;;;29.42;9.75;;;;;;;;;;4910023;29;20048;-73
2022/04/22 10:40:03;;;;;;;30.17;10.23;;;;;;;;;;4910910;29;20063;-77
2022/04/22 10:42:34;;;;;;;27.75;12.88;;;;;;;;;;4910124;29;20070;-74
2022/04/22 10:47:56;;;;;;;42.42;11.10;;;;;;;;;;4909963;29;20048;-74
2022/04/22 10:50:33;;;;;;;21.17;9.80;;;;;;;;;;4910895;29;20052;-75
2022/04/22 10:53:25;;;;;;;17.45;9.77;;;;;;;;;;4909867;29;20048;-74
2022/04/22 10:56:33;;;;;;;30.23;10.25;;;;;;;;;;4909990;29;20060;-75
2022/04/22 10:59:21;;;;;;;20.27;9.45;;;;;;;;;;4909901;29;20444;-75
2022/04/22 11:01:52;;;;;;;34.33;11.32;;;;;;;;;;4910453;29;20074;-78
2022/04/22 11:04:28;;;;;;;19.77;10.60;;;;;;;;;;4909117;29;20075;-72
2022/04/22 11:07:00;;;;;;;49.15;14.10;;;;;;;;;;4908787;29;20076;-73
2022/04/22 11:09:31;;;;;;;15.82;9.55;;;;;;;;;;4910163;29;20051;-74
2022/04/22 11:12:03;;;;;;;22.85;9.18;;;;;;;;;;4910814;29;20063;-75
2022/04/22 11:14:47;;;;;;;24.05;9.20;;;;;;;;;;4910792;29;20048;-74
2022/04/22 11:17:33;;;;;;;23.55;8.40;;;;;;;;;;4909551;29;20492;-74
2022/04/22 11:20:05;;;;;;;17.70;8.02;;;;;;;;;;4910166;29;20508;-73
2022/04/22 11:22:56;;;;;;;;;;;;;;;;;;4908928;29;20056;-73
2022/04/22 11:25:29;;;;;;;21.67;7.30;;;;;;;;;;4910049;29;19934;-76
2022/04/22 11:28:03;;;;;;;14.55;6.53;;;;;;;;;;4908093;29;20060;-73
2022/04/22 11:30:33;;;;;;;12.13;6.47;;;;;;;;;;4909603;29;20543;-75
2022/04/22 11:33:23;;;;;;;17.48;7.50;;;;;;;;;;4911055;29;20052;-74
2022/04/22 11:35:58;;;;;;;12.25;6.80;;;;;;;;;;4909350;29;20052;-77
2022/04/22 11:38:30;;;;;;;20.63;6.85;;;;;;;;;;4910749;29;20083;-78
2022/04/22 11:41:01;;;;;;;19.15;8.02;;;;;;;;;;4909863;29;20059;-76
2022/04/22 11:43:32;;;;;;;23.60;7.78;;;;;;;;;;4910277;29;20052;-76
2022/04/22 11:46:02;;;;;;;22.67;7.05;;;;;;;;;;4910413;29;20479;-78
2022/04/22 11:48:32;;;;;;;16.97;6.10;;;;;;;;;;4909934;29;20055;-74
2022/04/22 11:51:02;;;;;;;19.90;6.65;;;;;;;;;;4910029;29;20052;-74
2022/04/22 11:53:32;;;;;;;14.07;6.68;;;;;;;;;;4909281;29;20063;-74
2022/04/22 11:56:03;;;;;;;24.53;7.20;;;;;;;;;;4910568;29;20052;-75
2022/04/22 11:58:33;;;;;;;11.02;5.32;;;;;;;;;;4910025;29;20547;-73
2022/04/22 12:06:49;;;;;;;8.70;3.80;;;;;;;;;;4909928;29;20055;-76
2022/04/22 12:09:19;;;;;;;11.35;4.32;;;;;;;;;;4909090;29;20052;-75
2022/04/22 12:11:51;;;;;;;21.03;5.47;;;;;;;;;;4909948;29;20049;-73
2022/04/22 12:14:26;;;;;;;11.70;4.70;;;;;;;;;;4909854;29;20051;-76
2022/04/22 12:17:04;;;;;;;11.60;4.28;;;;;;;;;;4909722;29;20059;-76
2022/04/22 12:19:35;;;;;;;22.40;6.15;;;;;;;;;;4910102;29;20056;-75
2022/04/22 12:22:06;;;;;;;11.57;4.10;;;;;;;;;;4910082;29;20048;-77
2022/04/22 12:24:36;;;;;;;15.30;4.78;;;;;;;;;;4910259;29;20051;-75
2022/04/22 12:27:19;;;;;;;;;;;;;;;;;;4910476;29;20052;-74
2022/04/22 12:30:10;;;;;;;13.52;4.00;;;;;;;;;;4911726;29;19934;-78
2022/04/22 12:32:40;;;;;;;13.10;4.18;;;;;;;;;;4913580;29;21247;-75
2022/04/22 12:35:11;;;;;;;;;;;;;;;;;;4913567;29;20432;-76
2022/04/22 12:37:50;;;;;;;7.15;4.18;;;;;;;;;;4913511;29;19926;-75
2022/04/22 12:40:25;;;;;;;15.75;4.25;;;;;;;;;;4911572;29;20428;-75
2022/04/22 12:43:23;;;;;;;25.88;8.70;;;;;;;;;;4913531;29;20047;-75
2022/04/22 12:54:33;;;;;;;9.50;2.72;;;;;;;;;;4913005;29;20048;-76
2022/04/22 12:57:06;;;;;;;11.13;3.45;;;;;;;;;;4912494;29;20056;-76
2022/04/22 12:59:44;;;;;;;9.70;3.35;;;;;;;;;;4911669;29;20067;-75
2022/04/22 13:02:18;;;;;;;10.57;3.00;;;;;;;;;;4913349;29;20055;-76
2022/04/22 13:04:53;;;;;;;7.20;2.72;;;;;;;;;;4912341;29;20064;-76
2022/04/22 13:07:24;;;;;;;9.85;2.85;;;;;;;;;;4912908;29;20496;-75
2022/04/22 13:09:55;;;;;;;9.38;2.85;;;;;;;;;;4913031;29;20048;-75
2022/04/22 13:12:25;;;;;;;10.05;2.80;;;;;;;;;;4912499;29;20052;-75
2022/04/22 13:14:56;;;;;;;7.15;3.20;;;;;;;;;;4912731;29;20047;-76
2022/04/22 13:17:26;;;;;;;11.52;3.85;;;;;;;;;;4912513;29;20063;-76
2022/04/22 13:19:56;;;;;;;4.63;2.75;;;;;;;;;;4910639;29;20063;-75
2022/04/22 13:22:27;;;;;;;8.75;2.90;;;;;;;;;;4912100;29;20044;-76
2022/04/22 13:24:56;;;;;;;5.97;2.30;;;;;;;;;;4912413;29;20059;-75
2022/04/22 13:27:26;;;;;;;10.20;2.67;;;;;;;;;;4912265;29;20051;-76
2022/04/22 13:29:56;;;;;;;16.10;2.60;;;;;;;;;;4912027;29;20059;-77
2022/04/22 13:32:27;;;;;;;3.70;2.10;;;;;;;;;;4912849;29;20052;-75
2022/04/22 13:34:57;;;;;;;11.83;2.40;;;;;;;;;;4912658;29;20436;-75
2022/04/22 13:37:27;;;;;;;5.10;2.40;;;;;;;;;;4912128;29;20059;-76
2022/04/22 13:39:57;;;;;;;5.93;2.38;;;;;;;;;;4911847;29;20489;-75
2022/04/22 13:42:27;;;;;;;5.23;2.63;;;;;;;;;;4911788;29;20431;-76
2022/04/22 13:53:21;;;;;;;5.80;1.95;;;;;;;;;;4911221;29;20508;-76
2022/04/22 13:55:52;;;;;;;4.78;2.22;;;;;;;;;;4912699;29;20047;-75
2022/04/22 13:58:22;;;;;;;12.82;2.90;;;;;;;;;;4912342;29;20055;-77
2022/04/22 14:00:52;;;;;;;7.03;2.35;;;;;;;;;;4911983;29;20051;-76
2022/04/22 14:03:22;;;;;;;9.52;2.33;;;;;;;;;;4912318;29;20061;-79
2022/04/22 14:05:51;;;;;;;9.17;3.33;;;;;;;;;;4912048;29;20518;-74
2022/04/22 14:08:22;;;;;;;8.40;2.38;;;;;;;;;;4912123;29;20047;-74
2022/04/22 14:10:51;;;;;;;5.35;1.63;;;;;;;;;;4911889;29;20040;-75
2022/04/22 14:13:21;;;;;;;5.23;1.60;;;;;;;;;;4911853;29;20153;-75
2022/04/22 14:15:51;;;;;;;5.90;2.20;;;;;;;;;;4911797;29;20047;-75
2022/04/22 14:18:21;;;;;;;5.82;2.17;;;;;;;;;;4911575;29;20055;-74
2022/04/22 14:20:51;;;;;;;5.20;2.40;;;;;;;;;;4911764;29;20048;-74
2022/04/22 14:23:21;;;;;;;12.85;2.22;;;;;;;;;;4911644;29;20052;-77
2022/04/22 14:25:54;;;;;;;5.03;2.00;;;;;;;;;;4911417;29;20423;-75
2022/04/22 14:28:26;;;;;;;13.55;2.55;;;;;;;;;;4911570;29;20052;-75
2022/04/22 14:30:57;;;;;;;8.02;2.28;;;;;;;;;;4911507;29;20500;-76
2022/04/22 14:33:26;;;;;;;;;;;;;;;;;;4912410;29;20060;-76
2022/04/22 14:35:56;;;;;;;9.82;2.30;;;;;;;;;;4925370;29;19923;-75
2022/04/22 14:38:26;;;;;;;10.30;2.23;;;;;;;;;;4912106;29;20058;-75
2022/04/22 14:40:56;;;;;;;11.25;2.30;;;;;;;;;;4909407;29;20311;-73
2022/04/22 14:43:26;;;;;;;13.02;2.60;;;;;;;;;;4910556;29;20063;-75
2022/04/22 14:45:58;;;;;;;9.18;1.73;;;;;;;;;;4911427;29;20055;-75
2022/04/22 14:48:29;;;;;;;13.20;2.47;;;;;;;;;;4910962;29;20371;-76
2022/04/22 14:50:59;;;;;;;10.60;2.53;;;;;;;;;;4910628;29;20408;-73
2022/04/22 14:53:29;;;;;;;5.57;2.50;;;;;;;;;;4910517;29;20076;-79
2022/04/22 14:56:00;;;;;;;2.63;1.98;;;;;;;;;;4910149;29;20311;-77
2022/04/22 14:58:31;;;;;;;2.97;1.50;;;;;;;;;;4910777;29;20059;-77
2022/04/22 15:01:00;;;;;;;7.70;1.80;;;;;;;;;;4911510;29;20521;-77
2022/04/22 15:03:30;;;;;;;9.82;3.22;;;;;;;;;;4911410;29;20056;-78
2022/04/22 15:06:00;;;;;;;8.30;2.22;;;;;;;;;;4910498;29;20435;-76
2022/04/22 15:08:30;;;;;;;3.25;1.77;;;;;;;;;;4910329;29;20610;-77
2022/04/22 15:11:00;;;;;;;10.17;2.53;;;;;;;;;;4910988;29;20056;-77
2022/04/22 15:13:33;;;;;;;12.82;2.63;;;;;;;;;;4910865;29;20783;-78
2022/04/22 15:16:05;;;;;;;10.73;2.95;;;;;;;;;;4910420;29;21167;-75
2022/04/22 15:24:17;;;;;;;6.13;1.90;;;;;;;;;;4910361;29;20408;-76
2022/04/22 15:26:50;;;;;;;4.22;2.00;;;;;;;;;;4910522;29;20055;-75
2022/04/22 15:29:23;;;;;;;5.20;2.15;;;;;;;;;;4923841;29;20389;-76
2022/04/22 15:32:03;;;;;;;6.43;1.92;;;;;;;;;;4910364;29;20058;-75
2022/04/22 15:34:34;;;;;;;4.20;1.60;;;;;;;;;;4910704;29;20816;-75
2022/04/22 15:37:05;;;;;;;3.92;1.67;;;;;;;;;;4910722;29;20071;-75
2022/04/22 15:39:35;;;;;;;8.90;1.77;;;;;;;;;;4910230;29;20067;-76
2022/04/22 15:42:06;;;;;;;10.88;1.90;;;;;;;;;;4910777;29;20052;-76
2022/04/22 15:44:37;;;;;;;4.68;2.00;;;;;;;;;;4910553;29;20055;-76
2022/04/22 15:47:07;;;;;;;5.82;2.05;;;;;;;;;;4910064;29;20056;-76
2022/04/22 15:49:40;;;;;;;6.38;2.33;;;;;;;;;;4910607;29;20428;-76
2022/04/22 15:52:12;;;;;;;7.35;2.33;;;;;;;;;;4909929;29;20052;-75
2022/04/22 15:54:42;;;;;;;6.07;2.70;;;;;;;;;;4909707;29;20048;-75
2022/04/22 15:57:13;;;;;;;6.82;2.45;;;;;;;;;;4910153;29;20059;-76
2022/04/22 15:59:43;;;;;;;6.07;2.20;;;;;;;;;;4910331;29;20052;-76
2022/04/22 16:02:14;;;;;;;5.57;2.45;;;;;;;;;;4909680;29;20641;-77
2022/04/22 16:04:44;;;;;;;5.85;1.90;;;;;;;;;;4911503;29;20056;-74
2022/04/22 16:07:13;;;;;;;8.95;2.38;;;;;;;;;;4914458;29;20385;-75
2022/04/22 16:09:44;;;;;;;3.22;1.80;;;;;;;;;;4913946;29;20048;-75
2022/04/22 16:15:17;;;;;;;7.53;2.05;;;;;;;;;;4913682;29;20044;-76
2022/04/22 16:17:54;;;;;;;7.63;2.20;;;;;;;;;;4926988;29;20420;-80
2022/04/22 16:20:25;;;;;;;4.35;2.17;;;;;;;;;;4913031;29;20296;-76
2022/04/22 16:22:55;;;;;;;4.90;1.55;;;;;;;;;;4913796;29;20051;-75
2022/04/22 16:25:25;;;;;;;4.97;1.60;;;;;;;;;;4913471;29;21193;-77